Time;durP1;ratioP1;P1;durP2;ratioP2;P2;SDS_P1;SDS_P2;PMS_P1;PMS_P2;Temp;Humidity;BMP_temperature;BMP_pressure;BME280_temperature;BME280_humidity;BME280_pressure;Samples;Min_cycle;Max_cycle;Signal;HPM_P1;HPM_P2
2022/07/22 00:00:59;;;;;;;2.80;2.60;;;;;;;16.84;100.00;100122.98;1735210;82;20932;-42
2022/07/22 00:03:26;;;;;;;2.98;2.42;;;;;;;16.83;100.00;100124.77;1735294;82;20964;-42
2022/07/22 00:05:54;;;;;;;2.62;2.42;;;;;;;16.85;100.00;100126.84;1735460;82;22269;-42
2022/07/22 00:08:21;;;;;;;7.92;2.45;;;;;;;16.87;100.00;100126.75;1735341;82;22137;-42
2022/07/22 00:10:49;;;;;;;7.40;2.47;;;;;;;16.86;100.00;100131.15;1735309;82;21000;-42
2022/07/22 00:13:16;;;;;;;5.28;2.50;;;;;;;16.86;100.00;100122.00;1714377;82;20910;-43
2022/07/22 00:15:44;;;;;;;2.80;2.60;;;;;;;16.86;100.00;100131.15;1735068;82;20992;-42
2022/07/22 00:18:12;;;;;;;5.75;2.47;;;;;;;16.86;100.00;100129.84;1735557;82;21032;-41
2022/07/22 00:20:39;;;;;;;2.80;2.60;;;;;;;16.85;100.00;100128.15;1735399;82;21138;-42
2022/07/22 00:23:06;;;;;;;2.70;2.47;;;;;;;16.85;100.00;100137.30;1714561;82;21005;-42
2022/07/22 00:25:34;;;;;;;3.20;2.70;;;;;;;16.85;100.00;100125.98;1714739;82;20930;-42
2022/07/22 00:28:01;;;;;;;3.00;2.70;;;;;;;16.84;100.00;100129.52;1735308;82;20972;-42
2022/07/22 00:30:30;;;;;;;8.80;2.92;;;;;;;16.81;100.00;100136.59;1735344;82;21565;-42
2022/07/22 00:32:58;;;;;;;5.08;3.00;;;;;;;16.81;100.00;100135.77;1735229;82;22351;-42
2022/07/22 00:35:25;;;;;;;5.90;3.17;;;;;;;16.80;100.00;100141.92;1735192;82;20965;-42
2022/07/22 00:37:54;;;;;;;3.22;2.92;;;;;;;16.77;100.00;100138.98;1735195;81;20941;-42
2022/07/22 00:40:21;;;;;;;4.03;2.72;;;;;;;16.76;100.00;100134.67;1744507;81;20980;-42
2022/07/22 00:42:49;;;;;;;3.77;2.77;;;;;;;16.76;100.00;100135.98;1749353;82;21028;-42
2022/07/22 00:45:15;;;;;;;3.10;2.90;;;;;;;16.75;100.00;100132.98;1749108;81;21106;-42
2022/07/22 00:47:43;;;;;;;4.00;2.80;;;;;;;16.73;100.00;100134.83;1749338;82;20976;-42
2022/07/22 00:50:10;;;;;;;2.95;2.58;;;;;;;16.71;100.00;100139.73;1749342;81;20948;-42
2022/07/22 00:52:37;;;;;;;8.18;3.40;;;;;;;16.69;100.00;100135.05;1749222;82;20936;-42
2022/07/22 00:55:06;;;;;;;10.55;3.02;;;;;;;16.64;100.00;100141.35;1721754;82;21074;-42
2022/07/22 00:57:33;;;;;;;3.15;2.85;;;;;;;16.62;100.00;100142.33;1749486;81;21184;-42
2022/07/22 01:00:00;;;;;;;13.55;2.75;;;;;;;16.59;100.00;100145.96;1749098;82;21003;-42
2022/07/22 01:02:28;;;;;;;4.80;2.70;;;;;;;16.55;100.00;100148.34;1749372;82;20964;-42
2022/07/22 01:04:55;;;;;;;2.92;2.72;;;;;;;16.54;100.00;100147.09;1749129;81;21478;-42
2022/07/22 01:07:22;;;;;;;4.75;2.95;;;;;;;16.52;100.00;100143.23;1749404;82;20935;-42
2022/07/22 01:09:49;;;;;;;4.05;2.75;;;;;;;16.50;100.00;100138.55;1748905;81;22187;-42
2022/07/22 01:12:16;;;;;;;3.20;2.92;;;;;;;16.49;100.00;100139.47;1749140;82;21505;-42
2022/07/22 01:14:43;;;;;;;3.70;3.37;;;;;;;16.48;100.00;100139.09;1749051;82;20976;-42
2022/07/22 01:17:12;;;;;;;4.42;2.95;;;;;;;16.47;100.00;100135.64;1749264;82;21435;-42
2022/07/22 01:19:39;;;;;;;6.87;2.98;;;;;;;16.47;100.00;100138.70;1749313;82;21011;-42
2022/07/22 01:22:06;;;;;;;3.75;2.72;;;;;;;16.46;100.00;100136.56;1749127;82;21233;-42
2022/07/22 01:24:34;;;;;;;3.95;3.33;;;;;;;16.46;100.00;100136.56;1749171;82;20933;-42
2022/07/22 01:27:02;;;;;;;8.20;3.17;;;;;;;16.46;100.00;100140.48;1749267;82;20900;-42
2022/07/22 01:29:29;;;;;;;5.67;3.25;;;;;;;16.44;100.00;100140.16;1721730;82;21511;-42
2022/07/22 01:31:56;;;;;;;4.50;3.12;;;;;;;16.43;100.00;100146.30;1749352;82;20932;-42
2022/07/22 01:34:24;;;;;;;3.85;3.25;;;;;;;16.45;100.00;100139.23;1721878;82;21093;-42
2022/07/22 01:36:53;;;;;;;5.55;3.33;;;;;;;16.44;100.00;100138.85;1749243;82;21015;-42
2022/07/22 01:39:20;;;;;;;5.78;2.90;;;;;;;16.45;100.00;100149.69;1749222;81;20980;-42
2022/07/22 01:41:47;;;;;;;2.77;2.50;;;;;;;16.44;100.00;100145.38;1749318;82;21003;-42
2022/07/22 01:44:14;;;;;;;2.90;2.70;;;;;;;16.41;100.00;100140.31;1749474;82;20972;-41
2022/07/22 01:46:41;;;;;;;3.95;2.52;;;;;;;16.38;100.00;100134.76;1749364;80;21239;-42
2022/07/22 01:49:09;;;;;;;4.40;2.60;;;;;;;16.34;100.00;100140.61;1721684;82;20991;-42
2022/07/22 01:51:37;;;;;;;3.02;2.70;;;;;;;16.28;100.00;100139.57;1749249;82;20976;-42
2022/07/22 01:54:04;;;;;;;4.40;2.70;;;;;;;16.23;100.00;100141.56;1721462;82;20976;-42
2022/07/22 01:56:32;;;;;;;2.72;2.62;;;;;;;16.16;100.00;100145.39;1749338;82;21027;-42
2022/07/22 01:58:59;;;;;;;3.12;2.90;;;;;;;16.08;100.00;100150.52;1749410;82;21230;-43
2022/07/22 02:01:28;;;;;;;3.33;3.02;;;;;;;16.05;100.00;100155.02;1749147;80;21083;-42
2022/07/22 02:03:55;;;;;;;3.45;2.55;;;;;;;16.02;100.00;100156.00;1749147;82;20960;-42
2022/07/22 02:06:22;;;;;;;3.90;2.90;;;;;;;16.00;100.00;100157.83;1749253;82;20932;-42
2022/07/22 02:08:51;;;;;;;7.92;2.67;;;;;;;15.99;100.00;100157.92;1749209;82;20948;-42
2022/07/22 02:11:38;;;;;;;5.20;3.00;;;;;;;16.00;100.00;100164.36;1749167;82;21463;-42
2022/07/22 02:14:07;;;;;;;4.72;3.10;;;;;;;16.00;100.00;100158.30;1749113;81;20968;-42
2022/07/22 02:16:34;;;;;;;2.98;2.77;;;;;;;16.01;100.00;100160.83;1749262;82;20952;-42
2022/07/22 02:19:01;;;;;;;5.12;2.87;;;;;;;16.02;100.00;100166.44;1748684;82;20983;-42
2022/07/22 02:21:29;;;;;;;3.42;3.10;;;;;;;16.01;100.00;100160.83;1749198;82;20940;-42
2022/07/22 02:24:01;;;;;;;2.98;2.75;;;;;;;16.02;100.00;100165.61;1722760;82;21545;-42
2022/07/22 02:26:28;;;;;;;6.33;3.70;;;;;;;16.01;100.00;100171.27;1749076;81;20976;-42
2022/07/22 02:28:56;;;;;;;5.58;3.67;;;;;;;16.01;100.00;100173.88;1749215;82;20952;-42
2022/07/22 02:31:23;;;;;;;3.33;3.02;;;;;;;16.01;100.00;100173.05;1749185;82;22038;-42
2022/07/22 02:33:50;;;;;;;4.83;3.10;;;;;;;16.01;100.00;100169.97;1749205;82;20956;-42
2022/07/22 02:36:17;;;;;;;4.58;2.92;;;;;;;16.01;100.00;100173.88;1749235;82;21051;-42
2022/07/22 02:38:47;;;;;;;4.30;3.00;;;;;;;16.01;100.00;100179.10;1749179;82;20959;-42
2022/07/22 02:41:14;;;;;;;3.62;2.75;;;;;;;16.03;100.00;100180.35;1749197;82;20979;-42
2022/07/22 02:43:42;;;;;;;2.98;2.77;;;;;;;16.02;100.00;100185.19;1748540;82;20984;-42
2022/07/22 02:46:10;;;;;;;8.75;3.20;;;;;;;16.04;100.00;100188.56;1749337;82;21027;-42
2022/07/22 02:48:38;;;;;;;4.53;2.90;;;;;;;16.02;100.00;100185.19;1749302;82;21235;-42
2022/07/22 02:51:07;;;;;;;4.53;2.72;;;;;;;16.03;100.00;100185.57;1721457;82;21016;-42
2022/07/22 02:53:34;;;;;;;3.10;2.62;;;;;;;16.04;100.00;100185.95;1749327;82;21010;-42
2022/07/22 02:56:02;;;;;;;4.22;2.90;;;;;;;16.07;100.00;100187.13;1749333;82;21569;-42
2022/07/22 02:58:30;;;;;;;3.27;2.67;;;;;;;16.05;100.00;100185.91;1749235;82;20908;-42
2022/07/22 03:00:57;;;;;;;4.55;3.08;;;;;;;16.07;100.00;100185.38;1721824;82;21139;-42
2022/07/22 03:03:24;;;;;;;2.75;2.47;;;;;;;16.09;100.00;100180.92;1721826;82;20975;-41
2022/07/22 03:05:52;;;;;;;3.25;2.80;;;;;;;16.13;100.00;100181.61;1749037;82;20948;-42
2022/07/22 03:08:23;;;;;;;3.27;2.98;;;;;;;16.15;100.00;100190.69;1749062;82;20940;-42
2022/07/22 03:10:52;;;;;;;4.22;3.05;;;;;;;16.16;100.00;100199.74;1749283;82;21498;-42
2022/07/22 03:13:19;;;;;;;5.35;2.50;;;;;;;16.15;100.00;100205.88;1721382;82;21097;-42
2022/07/22 03:15:47;;;;;;;2.95;2.70;;;;;;;16.15;100.00;100202.44;1748884;82;20940;-42
2022/07/22 03:18:16;;;;;;;5.20;2.70;;;;;;;16.15;100.00;100205.05;1749186;82;21572;-42
2022/07/22 03:20:45;;;;;;;2.77;2.58;;;;;;;16.16;100.00;100206.74;1748900;82;20976;-42
2022/07/22 03:23:12;;;;;;;2.75;2.42;;;;;;;16.17;100.00;100205.83;1749097;81;20893;-42
2022/07/22 03:25:39;;;;;;;7.53;2.90;;;;;;;16.20;100.00;100201.77;1749054;82;21193;-42
2022/07/22 03:28:06;;;;;;;3.85;2.80;;;;;;;16.21;100.00;100196.93;1749204;82;20979;-42
2022/07/22 03:30:33;;;;;;;3.47;2.30;;;;;;;16.22;100.00;100200.78;1749263;82;20967;-42
2022/07/22 03:33:01;;;;;;;3.42;2.87;;;;;;;16.22;100.00;100207.77;1749018;81;20932;-42
2022/07/22 03:35:29;;;;;;;4.35;2.80;;;;;;;16.21;100.00;100209.98;1749077;81;20960;-43
2022/07/22 03:37:57;;;;;;;4.65;3.00;;;;;;;16.20;100.00;100206.98;1749278;82;21294;-44
2022/07/22 03:40:25;;;;;;;8.20;3.52;;;;;;;16.18;100.00;100207.52;1749094;81;20929;-43
2022/07/22 03:42:53;;;;;;;4.65;2.65;;;;;;;16.18;100.00;100213.60;1721699;82;20936;-43
2022/07/22 03:45:20;;;;;;;4.03;3.00;;;;;;;16.19;100.00;100213.13;1749272;82;21540;-43
2022/07/22 03:47:48;;;;;;;6.75;2.87;;;;;;;16.20;100.00;100214.82;1721961;82;21474;-43
2022/07/22 03:50:16;;;;;;;7.28;2.80;;;;;;;16.21;100.00;100216.52;1749104;81;21850;-43
2022/07/22 03:52:45;;;;;;;3.83;3.15;;;;;;;16.19;100.00;100215.73;1749068;82;20999;-43
2022/07/22 03:56:12;;;;;;;3.05;2.87;;;;;;;16.26;100.00;100215.84;1797703;79;23183;-43
2022/07/22 03:58:40;;;;;;;5.92;3.20;;;;;;;16.20;100.00;100218.30;1738590;81;20999;-43
2022/07/22 04:01:07;;;;;;;4.28;2.92;;;;;;;16.18;100.00;100215.35;1755193;81;22077;-42
2022/07/22 04:03:35;;;;;;;2.95;2.80;;;;;;;16.20;100.00;100214.82;1748924;82;20924;-42
2022/07/22 04:06:06;;;;;;;3.27;3.10;;;;;;;16.23;100.00;100215.54;1748142;82;21554;-42
2022/07/22 04:08:35;;;;;;;2.98;2.72;;;;;;;16.29;100.00;100220.08;1748161;82;20972;-42
2022/07/22 04:11:02;;;;;;;3.30;2.65;;;;;;;16.30;100.00;100218.72;1749036;81;20960;-42
2022/07/22 04:13:29;;;;;;;7.83;3.30;;;;;;;16.31;100.00;100226.94;1749173;82;21241;-42
2022/07/22 04:15:59;;;;;;;3.27;3.15;;;;;;;16.32;100.00;100241.69;1748946;82;20975;-43
2022/07/22 04:18:33;;;;;;;3.55;3.33;;;;;;;16.29;100.00;100240.97;1749135;81;20964;-43
2022/07/22 04:21:00;;;;;;;4.45;3.47;;;;;;;16.25;100.00;100244.17;1749027;81;20904;-43
2022/07/22 04:23:30;;;;;;;3.83;3.45;;;;;;;16.28;100.00;100245.34;1748878;82;20897;-43
2022/07/22 04:26:13;;;;;;;5.22;4.72;;;;;;;16.32;100.00;100244.30;1748450;82;20971;-43
2022/07/22 04:28:40;;;;;;;4.25;3.95;;;;;;;16.33;100.00;100251.22;1749085;82;20888;-43
2022/07/22 04:31:07;;;;;;;6.25;4.35;;;;;;;16.36;100.00;100267.19;1748911;82;20932;-43
2022/07/22 04:33:37;;;;;;;4.17;3.87;;;;;;;16.34;100.00;100259.89;1749027;82;20971;-43
2022/07/22 04:36:06;;;;;;;4.42;4.22;;;;;;;16.35;100.00;100258.97;1749161;82;20944;-43
2022/07/22 04:38:33;;;;;;;14.50;4.50;;;;;;;16.37;100.00;100259.30;1720027;82;21099;-43
2022/07/22 04:41:03;;;;;;;5.67;4.12;;;;;;;16.38;100.00;100269.27;1748739;81;21011;-42
2022/07/22 04:43:30;;;;;;;4.22;3.87;;;;;;;16.36;100.00;100261.52;1748875;81;20972;-43
2022/07/22 04:45:57;;;;;;;7.30;3.80;;;;;;;16.43;100.00;100262.09;1749011;82;20960;-43
2022/07/22 04:48:28;;;;;;;4.70;4.08;;;;;;;16.54;100.00;100261.57;1749141;80;21680;-43
2022/07/22 04:51:01;;;;;;;4.92;4.12;;;;;;;16.68;100.00;100263.57;1748888;82;23458;-43
2022/07/22 04:53:29;;;;;;;4.20;3.90;;;;;;;16.73;100.00;100262.02;1749064;82;20952;-43
2022/07/22 04:55:56;;;;;;;4.30;4.00;;;;;;;16.80;100.00;100267.37;1738441;81;21004;-43
2022/07/22 04:58:23;;;;;;;4.12;3.80;;;;;;;16.78;100.00;100267.87;1735812;82;21003;-43
2022/07/22 05:00:52;;;;;;;5.35;3.83;;;;;;;16.79;100.00;100268.26;1735890;82;21550;-42
2022/07/22 05:03:19;;;;;;;5.58;4.28;;;;;;;16.77;100.00;100270.10;1735826;82;21093;-43
2022/07/22 05:05:47;;;;;;;6.55;4.83;;;;;;;16.71;100.00;100280.41;1735627;82;20968;-42
2022/07/22 05:08:18;;;;;;;6.65;4.47;;;;;;;16.70;100.00;100275.23;1735361;81;20929;-43
2022/07/22 05:10:45;;;;;;;5.50;4.17;;;;;;;16.69;100.00;100274.85;1735167;81;20972;-43
2022/07/22 05:13:13;;;;;;;5.92;4.37;;;;;;;16.69;100.00;100278.77;1735328;81;20992;-43
2022/07/22 05:15:41;;;;;;;5.40;3.90;;;;;;;16.69;100.00;100270.48;1735222;81;21062;-43
2022/07/22 05:18:08;;;;;;;6.35;4.25;;;;;;;16.67;100.00;100278.83;1735323;82;21011;-43
2022/07/22 05:20:36;;;;;;;4.70;4.40;;;;;;;16.69;100.00;100272.23;1735224;82;21375;-43
2022/07/22 05:23:03;;;;;;;4.15;3.75;;;;;;;16.71;100.00;100273.02;1735150;81;20944;-44
2022/07/22 05:25:32;;;;;;;4.10;3.90;;;;;;;16.77;100.00;100271.41;1735349;82;20960;-43
2022/07/22 05:27:59;;;;;;;8.13;3.92;;;;;;;16.90;100.00;100266.44;1735305;82;21236;-43
2022/07/22 05:30:34;;;;;;;8.23;4.55;;;;;;;17.07;100.00;100273.05;1735037;81;21032;-43
2022/07/22 05:33:03;;;;;;;4.10;3.70;;;;;;;17.24;100.00;100263.55;1735320;82;21506;-43
2022/07/22 05:35:31;;;;;;;6.75;3.30;;;;;;;17.43;100.00;100268.70;1732261;82;21012;-43
2022/07/22 05:37:59;;;;;;;4.87;3.27;;;;;;;17.57;100.00;100263.24;1735169;81;20936;-43
2022/07/22 05:40:26;;;;;;;4.78;3.15;;;;;;;17.80;100.00;100262.88;1735406;82;22162;-43
2022/07/22 05:42:53;;;;;;;3.17;2.90;;;;;;;17.98;99.22;100255.48;1735658;82;21000;-43
2022/07/22 05:45:20;;;;;;;3.33;3.00;;;;;;;18.16;98.87;100253.68;1735213;82;20948;-43
2022/07/22 05:47:49;;;;;;;3.17;2.98;;;;;;;18.35;96.37;100258.32;1735189;82;20898;-43
2022/07/22 05:50:17;;;;;;;3.33;3.02;;;;;;;18.41;94.15;100265.45;1735082;82;20901;-43
2022/07/22 05:52:45;;;;;;;8.50;2.92;;;;;;;18.43;94.20;100264.91;1714613;82;21107;-43
2022/07/22 05:55:12;;;;;;;8.10;3.10;;;;;;;18.48;94.76;100268.98;1739915;81;20912;-43
2022/07/22 05:57:41;;;;;;;5.78;3.20;;;;;;;18.58;95.83;100270.63;1749209;81;20976;-43
2022/07/22 06:00:09;;;;;;;4.15;3.35;;;;;;;18.63;94.15;100258.11;1749147;81;20940;-43
2022/07/22 06:02:38;;;;;;;6.95;2.65;;;;;;;18.67;93.94;100258.77;1748953;82;20951;-43
2022/07/22 06:05:08;;;;;;;3.12;2.72;;;;;;;18.78;92.69;100266.03;1721606;82;22255;-43
2022/07/22 06:07:35;;;;;;;2.75;2.55;;;;;;;18.91;91.84;100259.19;1749059;82;20928;-43
2022/07/22 06:10:02;;;;;;;6.87;3.37;;;;;;;19.18;91.89;100260.33;1749165;82;21079;-43
2022/07/22 06:12:31;;;;;;;3.85;2.17;;;;;;;19.67;92.35;100261.87;1722233;82;21034;-43
2022/07/22 06:14:58;;;;;;;3.50;1.92;;;;;;;20.04;87.37;100261.45;1749293;82;20932;-43
2022/07/22 06:17:26;;;;;;;3.37;2.02;;;;;;;20.06;87.10;100269.59;1749182;82;21219;-43
2022/07/22 06:19:53;;;;;;;3.50;2.15;;;;;;;20.14;87.04;100265.67;1749130;82;21040;-44
2022/07/22 06:22:20;;;;;;;5.87;2.35;;;;;;;20.34;87.34;100271.86;1749180;80;21048;-43
2022/07/22 06:24:47;;;;;;;3.67;2.10;;;;;;;20.64;86.46;100264.28;1749104;82;20967;-43
2022/07/22 06:27:14;;;;;;;5.47;1.98;;;;;;;20.97;82.33;100255.66;1749273;82;20987;-43
2022/07/22 06:29:41;;;;;;;6.85;2.25;;;;;;;21.08;80.85;100258.88;1749260;82;21246;-43
2022/07/22 06:32:10;;;;;;;5.12;1.80;;;;;;;20.97;79.34;100258.30;1749310;82;20920;-43
2022/07/22 06:34:37;;;;;;;8.85;2.20;;;;;;;20.90;79.41;100252.58;1749345;82;20984;-43
2022/07/22 06:37:05;;;;;;;1.82;1.70;;;;;;;20.80;80.22;100256.28;1749231;82;21482;-43
2022/07/22 06:39:32;;;;;;;5.50;2.02;;;;;;;20.73;80.41;100251.02;1721829;82;21023;-43
2022/07/22 06:42:01;;;;;;;1.87;1.75;;;;;;;20.79;81.33;100250.64;1746409;82;21870;-43
2022/07/22 06:44:47;;;;;;;4.30;2.00;;;;;;;20.90;80.65;100248.64;1749060;82;20999;-44
2022/07/22 06:47:22;;;;;;;3.55;1.90;;;;;;;20.85;80.51;100251.19;1747045;82;20948;-43
2022/07/22 06:49:49;;;;;;;4.05;1.77;;;;;;;20.93;81.99;100252.38;1749221;82;20900;-43
2022/07/22 06:52:18;;;;;;;5.17;1.82;;;;;;;21.04;81.11;100244.23;1749089;82;21539;-44
2022/07/22 06:54:45;;;;;;;3.37;1.77;;;;;;;21.25;76.78;100254.66;1748622;81;21234;-43
2022/07/22 06:57:14;;;;;;;5.37;1.80;;;;;;;21.19;77.77;100251.13;1734671;82;21487;-43
2022/07/22 06:59:41;;;;;;;8.45;2.08;;;;;;;21.16;78.88;100252.66;1735248;82;20898;-43
2022/07/22 07:02:09;;;;;;;1.67;1.57;;;;;;;21.08;77.58;100260.19;1735115;82;21051;-43
2022/07/22 07:04:36;;;;;;;2.20;2.10;;;;;;;20.98;78.53;100263.92;1735227;82;21043;-43
2022/07/22 07:07:03;;;;;;;2.72;2.05;;;;;;;21.05;78.03;100253.81;1735069;81;21185;-43
2022/07/22 07:09:33;;;;;;;5.22;1.80;;;;;;;20.93;78.31;100262.90;1735303;82;20901;-43
2022/07/22 07:12:20;;;;;;;2.33;1.90;;;;;;;20.75;78.37;100258.34;1734492;82;20936;-43
2022/07/22 07:14:57;;;;;;;3.72;2.08;;;;;;;20.53;78.70;100267.59;1728265;82;21067;-43
2022/07/22 07:17:24;;;;;;;1.87;1.77;;;;;;;20.58;79.02;100269.91;1735314;82;20999;-43
2022/07/22 07:19:53;;;;;;;10.45;2.92;;;;;;;20.95;81.04;100262.78;1735255;82;21502;-43
2022/07/22 07:22:20;;;;;;;2.58;2.25;;;;;;;21.40;79.15;100253.28;1735266;82;20909;-43
2022/07/22 07:24:47;;;;;;;3.20;1.98;;;;;;;21.44;75.38;100255.20;1734892;81;21209;-44
2022/07/22 07:27:14;;;;;;;5.30;2.27;;;;;;;21.50;76.09;100264.86;1735100;82;20941;-43
2022/07/22 07:29:42;;;;;;;5.15;2.25;;;;;;;21.67;77.01;100262.42;1735394;82;21703;-43
2022/07/22 07:32:10;;;;;;;3.20;1.60;;;;;;;21.80;74.71;100258.47;1735204;82;21266;-44
2022/07/22 07:34:38;;;;;;;7.80;2.15;;;;;;;21.88;73.85;100261.08;1735193;81;20977;-43
2022/07/22 07:37:05;;;;;;;4.45;1.98;;;;;;;21.85;72.85;100262.11;1735108;82;20988;-43
2022/07/22 07:39:32;;;;;;;3.22;1.60;;;;;;;21.91;75.26;100264.81;1714151;82;21027;-43
2022/07/22 07:42:00;;;;;;;4.65;1.92;;;;;;;22.18;75.77;100267.28;1734867;81;20968;-44
2022/07/22 07:44:27;;;;;;;3.60;1.70;;;;;;;22.49;74.31;100263.84;1735016;82;21370;-43
2022/07/22 07:46:56;;;;;;;3.75;1.80;;;;;;;22.73;71.53;100256.89;1735114;82;20972;-44
2022/07/22 07:49:23;;;;;;;2.27;1.70;;;;;;;22.67;70.48;100256.84;1714474;82;20992;-44
2022/07/22 07:51:50;;;;;;;2.70;1.70;;;;;;;22.50;71.44;100273.90;1735140;82;20993;-43
2022/07/22 07:54:17;;;;;;;2.00;1.70;;;;;;;22.22;69.53;100271.39;1735240;82;20977;-44
2022/07/22 07:56:44;;;;;;;2.33;2.12;;;;;;;21.82;71.59;100275.50;1745100;81;21150;-43
2022/07/22 07:59:12;;;;;;;4.30;1.70;;;;;;;21.70;74.05;100271.91;1749200;82;20964;-43
2022/07/22 08:01:40;;;;;;;3.58;1.55;;;;;;;21.96;75.33;100264.01;1749389;82;21016;-43
2022/07/22 08:04:07;;;;;;;3.65;1.50;;;;;;;22.25;72.55;100271.20;1748978;82;21003;-43
2022/07/22 08:06:34;;;;;;;5.78;1.87;;;;;;;22.09;71.63;100278.00;1749108;82;20987;-43
2022/07/22 08:09:01;;;;;;;3.10;1.60;;;;;;;21.77;71.88;100288.98;1749156;82;21164;-43
2022/07/22 08:11:31;;;;;;;4.87;1.42;;;;;;;21.82;75.07;100282.09;1748963;82;20952;-43
2022/07/22 08:14:05;;;;;;;;;;;;;;;22.19;72.10;100276.05;1748846;82;21019;-43
2022/07/22 08:16:40;;;;;;;2.77;1.95;;;;;;;22.39;70.85;100268.89;1747884;82;20075;-43
2022/07/22 08:19:07;;;;;;;4.58;1.60;;;;;;;21.96;70.39;100279.33;1749042;82;21022;-43
2022/07/22 08:21:36;;;;;;;4.95;1.80;;;;;;;21.58;72.18;100280.14;1748999;82;20955;-43
2022/07/22 08:24:09;;;;;;;2.30;1.90;;;;;;;21.57;74.97;100269.25;1739659;80;20952;-43
2022/07/22 08:26:36;;;;;;;4.10;1.50;;;;;;;21.92;73.84;100253.31;1748907;81;21544;-43
2022/07/22 08:29:07;;;;;;;5.42;1.85;;;;;;;22.07;70.64;100265.41;1749143;82;21027;-44
2022/07/22 08:31:34;;;;;;;3.72;1.67;;;;;;;22.13;70.29;100263.31;1749039;82;20904;-44
2022/07/22 08:34:04;;;;;;;8.18;1.98;;;;;;;22.36;69.64;100255.94;1748647;82;21150;-43
2022/07/22 08:36:31;;;;;;;3.70;1.55;;;;;;;22.73;68.13;100264.80;1748925;82;20996;-44
2022/07/22 08:38:59;;;;;;;1.60;1.47;;;;;;;22.89;67.85;100262.73;1748942;82;20936;-44
2022/07/22 08:41:26;;;;;;;1.85;1.75;;;;;;;22.99;66.20;100262.05;1721405;82;20900;-44
2022/07/22 08:43:53;;;;;;;6.45;2.02;;;;;;;23.22;67.36;100259.00;1749151;81;21474;-44
2022/07/22 08:46:20;;;;;;;4.40;1.57;;;;;;;23.35;66.23;100254.98;1749238;82;21039;-44
2022/07/22 08:48:58;;;;;;;3.67;2.00;;;;;;;23.37;66.91;100247.81;1744306;82;20940;-44
2022/07/22 08:51:28;;;;;;;5.45;2.10;;;;;;;22.98;65.04;100264.32;1692580;82;20940;-44
2022/07/22 08:54:00;;;;;;;1.80;1.47;;;;;;;22.70;67.08;100262.39;1719945;82;21616;-44
2022/07/22 08:56:29;;;;;;;3.80;1.42;;;;;;;22.94;68.96;100262.38;1742719;81;20999;-44
2022/07/22 08:58:56;;;;;;;4.60;1.57;;;;;;;23.36;68.58;100260.16;1735308;82;22223;-43
2022/07/22 09:01:23;;;;;;;2.00;1.80;;;;;;;23.67;65.02;100253.85;1735176;82;21483;-43
2022/07/22 09:03:59;;;;;;;3.02;1.50;;;;;;;23.82;62.98;100257.10;1735459;82;21558;-44
2022/07/22 09:06:27;;;;;;;1.65;1.55;;;;;;;23.44;63.45;100250.34;1735329;81;20980;-44
2022/07/22 09:09:01;;;;;;;13.78;1.62;;;;;;;23.02;66.57;100260.49;1735568;81;21024;-44
2022/07/22 09:11:46;;;;;;;4.42;1.60;;;;;;;22.81;66.20;100259.80;1735333;82;22165;-44
2022/07/22 09:14:24;;;;;;;2.45;1.60;;;;;;;22.96;65.40;100277.61;1732493;82;20996;-44
2022/07/22 09:17:08;;;;;;;1.67;1.55;;;;;;;23.21;66.25;100279.29;1732757;82;21078;-43
2022/07/22 09:19:37;;;;;;;2.10;1.70;;;;;;;23.70;64.89;100265.14;1714310;82;21032;-45
2022/07/22 09:22:37;;;;;;;1.92;1.82;;;;;;;23.91;62.04;100284.62;1738374;82;20968;-44
2022/07/22 09:25:22;;;;;;;6.10;1.80;;;;;;;24.01;60.53;100279.49;1734282;82;21199;-43
2022/07/22 09:28:12;;;;;;;4.00;1.57;;;;;;;23.78;62.25;100278.13;1735282;82;21012;-45
2022/07/22 09:30:50;;;;;;;4.97;1.57;;;;;;;23.51;62.72;100280.60;1707965;82;20996;-44
2022/07/22 09:33:18;;;;;;;2.20;1.32;;;;;;;23.19;63.55;100293.55;1735336;82;20945;-44
2022/07/22 09:35:47;;;;;;;3.92;1.75;;;;;;;23.05;66.02;100294.11;1734523;82;20980;-43
2022/07/22 09:38:16;;;;;;;3.80;1.75;;;;;;;23.22;63.77;100295.49;1735359;82;21078;-44
2022/07/22 09:40:45;;;;;;;5.55;1.50;;;;;;;23.50;65.08;100294.77;1735324;82;20968;-44
2022/07/22 09:43:17;;;;;;;5.37;1.80;;;;;;;23.56;62.98;100291.29;1735495;82;21003;-44
2022/07/22 09:45:58;;;;;;;3.85;1.60;;;;;;;23.51;63.88;100294.30;1735223;82;20960;-44
2022/07/22 09:48:30;;;;;;;8.80;1.77;;;;;;;23.50;62.92;100297.41;1732577;82;20945;-43
2022/07/22 09:51:14;;;;;;;2.25;1.92;;;;;;;23.49;61.65;100290.45;1732683;82;21172;-44
2022/07/22 09:53:47;;;;;;;4.22;1.60;;;;;;;23.41;64.02;100288.88;1732450;82;20988;-44
2022/07/22 09:56:17;;;;;;;2.85;1.80;;;;;;;23.65;65.50;100293.25;1737747;81;20971;-44
2022/07/22 09:58:44;;;;;;;6.95;1.60;;;;;;;23.99;61.65;100300.35;1748856;82;21505;-44
2022/07/22 10:01:13;;;;;;;7.03;1.45;;;;;;;24.14;61.80;100298.37;1747999;82;21000;-45
2022/07/22 10:03:40;;;;;;;1.20;1.20;;;;;;;23.88;61.31;100303.86;1749080;81;21094;-45
2022/07/22 10:06:07;;;;;;;1.45;1.25;;;;;;;23.54;61.18;100316.02;1749101;82;20963;-45
2022/07/22 10:08:36;;;;;;;3.77;1.67;;;;;;;23.36;61.42;100310.80;1749139;80;21518;-45
2022/07/22 10:11:06;;;;;;;7.33;1.47;;;;;;;23.51;62.74;100297.77;1749203;82;20983;-45
2022/07/22 10:13:34;;;;;;;1.95;1.40;;;;;;;23.72;62.27;100314.27;1749013;81;20901;-45
2022/07/22 10:16:04;;;;;;;4.78;1.55;;;;;;;23.65;60.48;100304.64;1749396;81;21740;-45
2022/07/22 10:18:32;;;;;;;1.42;1.30;;;;;;;23.64;62.20;100306.92;1746401;82;21497;-44
2022/07/22 10:21:08;;;;;;;1.32;1.22;;;;;;;23.89;61.56;100318.25;1749221;82;21470;-44
2022/07/22 10:23:36;;;;;;;1.47;1.37;;;;;;;24.09;61.08;100318.55;1749178;81;21015;-45
2022/07/22 10:26:06;;;;;;;2.58;1.67;;;;;;;24.28;60.35;100318.44;1749141;82;20971;-45
2022/07/22 10:28:36;;;;;;;4.85;1.40;;;;;;;24.42;60.90;100311.56;1749187;82;21174;-45
2022/07/22 10:31:24;;;;;;;6.62;2.15;;;;;;;24.66;59.10;100298.19;1749034;81;21019;-45
2022/07/22 10:33:55;;;;;;;3.33;1.10;;;;;;;24.86;59.52;100303.67;1749221;82;20999;-44
2022/07/22 10:36:34;;;;;;;6.53;1.22;;;;;;;25.04;57.42;100310.62;1749349;82;21526;-45
2022/07/22 10:39:05;;;;;;;1.47;1.30;;;;;;;25.27;57.21;100307.03;1749040;81;20968;-45
2022/07/22 10:41:45;;;;;;;2.15;1.35;;;;;;;25.38;55.08;100295.89;1749346;82;21187;-45
2022/07/22 10:44:13;;;;;;;5.10;1.60;;;;;;;25.50;54.60;100312.59;1749119;82;20909;-45
2022/07/22 10:46:54;;;;;;;1.50;1.20;;;;;;;25.12;55.99;100286.13;1749127;82;21027;-44
2022/07/22 10:49:25;;;;;;;2.85;1.20;;;;;;;24.83;57.83;100302.61;1749073;82;20972;-44
2022/07/22 10:52:20;;;;;;;5.85;1.62;;;;;;;24.82;58.36;100309.72;1749114;81;20964;-44
2022/07/22 10:55:20;;;;;;;1.12;1.00;;;;;;;24.75;56.90;100311.66;1749485;82;21265;-45
2022/07/22 10:57:48;;;;;;;2.35;1.25;;;;;;;24.25;58.02;100317.72;1748073;81;20963;-44
2022/07/22 11:00:16;;;;;;;1.02;1.00;;;;;;;23.86;58.90;100321.14;1749194;82;20936;-45
2022/07/22 11:02:44;;;;;;;1.80;1.27;;;;;;;23.73;59.97;100309.34;1748986;81;21071;-45
2022/07/22 11:05:11;;;;;;;2.98;1.12;;;;;;;23.97;59.84;100312.38;1749168;82;20963;-44
2022/07/22 11:07:45;;;;;;;5.45;1.32;;;;;;;24.06;58.12;100302.94;1749069;82;21152;-45
2022/07/22 11:10:17;;;;;;;2.27;1.30;;;;;;;24.08;59.11;100312.41;1749225;82;20972;-44
2022/07/22 11:12:48;;;;;;;7.12;0.98;;;;;;;24.43;59.19;100312.41;1748766;82;20936;-44
2022/07/22 11:15:16;;;;;;;6.28;1.22;;;;;;;24.64;58.77;100302.77;1749120;82;20971;-44
2022/07/22 11:17:43;;;;;;;5.83;1.20;;;;;;;24.90;56.52;100298.98;1749248;82;20940;-45
2022/07/22 11:20:13;;;;;;;0.85;0.85;;;;;;;24.97;56.58;100302.80;1749202;82;21992;-44
2022/07/22 11:22:40;;;;;;;1.10;1.00;;;;;;;24.89;54.01;100299.48;1749123;81;20971;-44
2022/07/22 11:25:09;;;;;;;5.15;0.88;;;;;;;24.51;53.21;100308.67;1749006;82;21647;-45
2022/07/22 11:27:38;;;;;;;3.85;0.90;;;;;;;24.10;54.67;100310.48;1749011;82;21016;-45
2022/07/22 11:30:06;;;;;;;1.60;0.88;;;;;;;23.65;55.90;100307.78;1749073;82;20991;-45
2022/07/22 11:32:35;;;;;;;2.85;0.85;;;;;;;23.45;57.63;100314.09;1749243;81;22085;-45